Time;durP1;ratioP1;P1;durP2;ratioP2;P2;SDS_P1;SDS_P2;PMS_P1;PMS_P2;Temp;Humidity;BMP_temperature;BMP_pressure;BME280_temperature;BME280_humidity;BME280_pressure;Samples;Min_cycle;Max_cycle;Signal;HPM_P1;HPM_P2
2021/12/01 00:00:54;;;;;;;16.95;16.15;;;6.30;87.60;;;;;;5022923;28;20292;-71
2021/12/01 00:03:22;;;;;;;16.75;15.90;;;6.20;88.30;;;;;;5026955;28;20248;-71
2021/12/01 00:05:49;;;;;;;16.05;15.35;;;6.20;88.20;;;;;;5016356;28;20189;-71
2021/12/01 00:08:18;;;;;;;16.95;16.15;;;6.20;89.00;;;;;;5023329;28;20280;-71
2021/12/01 00:10:46;;;;;;;16.90;16.10;;;6.20;88.80;;;;;;5024517;28;20295;-71
2021/12/01 00:13:15;;;;;;;16.13;15.43;;;6.20;89.10;;;;;;5025042;28;20231;-71
2021/12/01 00:15:44;;;;;;;16.00;15.30;;;6.20;89.40;;;;;;5023614;28;20659;-71
2021/12/01 00:18:11;;;;;;;16.55;15.75;;;6.10;89.60;;;;;;5023814;28;20253;-71
2021/12/01 00:20:39;;;;;;;15.90;15.20;;;6.20;89.00;;;;;;5020514;28;20229;-71
2021/12/01 00:23:08;;;;;;;16.35;15.55;;;6.20;88.90;;;;;;5023251;28;20360;-72
2021/12/01 00:25:39;;;;;;;16.90;16.10;;;6.00;89.20;;;;;;5023468;28;20197;-72
2021/12/01 00:28:07;;;;;;;16.48;15.70;;;6.20;89.10;;;;;;5026093;28;20221;-72
2021/12/01 00:30:34;;;;;;;16.55;15.73;;;6.10;89.10;;;;;;5025163;28;20208;-72
2021/12/01 00:33:01;;;;;;;16.70;15.80;;;6.00;89.30;;;;;;5026007;28;20213;-72
2021/12/01 00:35:29;;;;;;;15.90;15.10;;;6.10;89.60;;;;;;5025337;28;20225;-72
2021/12/01 00:37:56;;;;;;;16.10;15.40;;;6.00;89.80;;;;;;5020729;28;20304;-73
2021/12/01 00:40:25;;;;;;;16.42;15.68;;;5.90;90.70;;;;;;5025615;28;20193;-71
2021/12/01 00:42:54;;;;;;;16.30;15.60;;;5.90;90.30;;;;;;5022346;28;20214;-72
2021/12/01 00:45:22;;;;;;;16.10;15.40;;;5.90;89.90;;;;;;5025601;28;20197;-72
2021/12/01 00:47:50;;;;;;;16.85;16.05;;;5.80;90.00;;;;;;5021993;28;20198;-72
2021/12/01 00:50:21;;;;;;;15.90;15.20;;;5.90;89.50;;;;;;5023746;28;20244;-71
2021/12/01 00:52:48;;;;;;;16.52;15.82;;;5.90;89.40;;;;;;5023383;28;20224;-71
2021/12/01 00:55:15;;;;;;;17.05;16.25;;;5.90;89.30;;;;;;5025889;28;20423;-71
2021/12/01 00:57:42;;;;;;;16.52;15.82;;;5.80;89.60;;;;;;5024624;28;20310;-72
2021/12/01 01:00:12;;;;;;;16.30;15.60;;;5.90;90.20;;;;;;5026456;28;20236;-71
2021/12/01 01:02:39;;;;;;;15.95;15.25;;;6.00;89.70;;;;;;5021856;28;21010;-71
2021/12/01 01:05:08;;;;;;;16.30;15.60;;;5.90;89.80;;;;;;5025913;28;20229;-72
2021/12/01 01:07:35;;;;;;;16.75;15.80;;;5.90;89.60;;;;;;5024438;28;20282;-71
2021/12/01 01:10:15;;;;;;;15.98;15.27;;;5.90;89.80;;;;;;5026174;28;20678;-71
2021/12/01 01:18:12;;;;;;;16.02;15.32;;;5.90;89.60;;;;;;5022771;28;20224;-72
2021/12/01 01:20:39;;;;;;;15.98;15.27;;;5.90;89.50;;;;;;5022874;28;20239;-71
2021/12/01 01:23:06;;;;;;;15.57;14.90;;;5.90;89.50;;;;;;5025098;28;20288;-71
2021/12/01 01:25:33;;;;;;;16.13;15.43;;;6.00;89.90;;;;;;5022663;28;20667;-71
2021/12/01 01:28:00;;;;;;;16.05;15.32;;;6.00;89.40;;;;;;5025198;28;20235;-72
2021/12/01 01:30:29;;;;;;;16.38;15.68;;;5.90;89.40;;;;;;5025018;28;20228;-71
2021/12/01 01:32:56;;;;;;;16.40;15.60;;;5.90;89.50;;;;;;5023791;28;20205;-71
2021/12/01 01:35:23;;;;;;;16.35;15.65;;;6.00;89.10;;;;;;5026665;28;20225;-72
2021/12/01 01:37:50;;;;;;;16.45;15.70;;;6.10;88.70;;;;;;5023252;28;20217;-71
2021/12/01 01:40:18;;;;;;;16.20;15.50;;;6.10;88.70;;;;;;5029241;28;20296;-72
2021/12/01 01:42:45;;;;;;;16.08;15.38;;;6.10;88.70;;;;;;5018578;28;20305;-71
2021/12/01 01:45:13;;;;;;;16.90;16.20;;;6.10;88.90;;;;;;5019942;28;20588;-72
2021/12/01 01:47:58;;;;;;;23.15;18.20;;;6.10;88.50;;;;;;5025145;28;20291;-71
2021/12/01 01:50:34;;;;;;;17.08;16.10;;;6.10;89.20;;;;;;5025775;28;20197;-71
2021/12/01 01:53:03;;;;;;;16.98;16.17;;;6.20;88.70;;;;;;5020548;28;20690;-71
2021/12/01 01:55:30;;;;;;;16.63;15.82;;;6.10;88.60;;;;;;5025378;28;20288;-71
2021/12/01 01:57:57;;;;;;;16.75;15.95;;;6.10;88.20;;;;;;5025169;28;20197;-71
2021/12/01 02:00:24;;;;;;;17.58;16.67;;;6.10;88.30;;;;;;5025584;28;20251;-71
2021/12/01 02:02:53;;;;;;;16.85;16.10;;;6.10;88.40;;;;;;5022601;28;20301;-71
2021/12/01 02:05:21;;;;;;;17.67;16.77;;;6.10;89.00;;;;;;5028766;28;20256;-71
2021/12/01 02:07:49;;;;;;;17.55;16.65;;;6.20;88.70;;;;;;5021697;28;20289;-71
2021/12/01 02:10:16;;;;;;;17.38;16.48;;;6.20;88.60;;;;;;5026129;28;20663;-72
2021/12/01 02:12:43;;;;;;;17.50;16.70;;;6.10;89.40;;;;;;5026301;28;20217;-71
2021/12/01 02:15:11;;;;;;;17.60;16.80;;;6.20;88.60;;;;;;5023867;28;20225;-71
2021/12/01 02:17:38;;;;;;;17.15;16.20;;;6.20;88.70;;;;;;5023838;28;20284;-71
2021/12/01 02:20:12;;;;;;;17.13;16.33;;;6.20;88.70;;;;;;5024093;28;20586;-71
2021/12/01 02:22:42;;;;;;;17.17;16.38;;;6.10;88.40;;;;;;5027869;28;20299;-71
2021/12/01 02:25:10;;;;;;;17.25;16.25;;;6.20;88.50;;;;;;5021925;28;20229;-71
2021/12/01 02:27:37;;;;;;;17.00;16.20;;;6.30;88.10;;;;;;5022503;28;20223;-71
2021/12/01 02:30:04;;;;;;;17.58;16.58;;;6.20;88.40;;;;;;5023972;28;20225;-71
2021/12/01 02:32:31;;;;;;;16.77;15.98;;;6.30;87.80;;;;;;5027473;28;20651;-71
2021/12/01 02:34:58;;;;;;;17.15;16.05;;;6.30;87.70;;;;;;5025842;28;20643;-71
2021/12/01 02:37:26;;;;;;;17.05;16.25;;;6.40;88.10;;;;;;5028591;28;20667;-71
2021/12/01 02:39:54;;;;;;;17.33;16.42;;;6.40;87.50;;;;;;5026276;28;20326;-71
2021/12/01 02:42:21;;;;;;;17.20;16.40;;;6.30;87.60;;;;;;5021533;28;20643;-71
2021/12/01 02:44:50;;;;;;;16.85;16.05;;;6.30;87.80;;;;;;5024153;28;20263;-71
2021/12/01 02:47:17;;;;;;;17.42;16.63;;;6.30;87.50;;;;;;5028575;28;20292;-72
2021/12/01 02:49:44;;;;;;;17.20;16.38;;;6.30;87.30;;;;;;5028683;28;20285;-72
2021/12/01 02:52:12;;;;;;;17.00;16.20;;;6.30;87.00;;;;;;5025835;28;20284;-71
2021/12/01 02:54:39;;;;;;;16.55;15.75;;;6.40;87.30;;;;;;5019411;28;20275;-71
2021/12/01 02:57:08;;;;;;;16.80;16.00;;;6.40;87.00;;;;;;5024436;28;20210;-71
2021/12/01 02:59:35;;;;;;;16.10;15.30;;;6.40;86.50;;;;;;5027439;28;20304;-71
2021/12/01 03:02:02;;;;;;;16.88;16.08;;;6.30;88.90;;;;;;5025050;28;20233;-71
2021/12/01 03:04:30;;;;;;;17.75;16.85;;;6.40;87.60;;;;;;5026494;28;20240;-71
2021/12/01 03:06:58;;;;;;;16.90;16.05;;;6.50;87.10;;;;;;5022515;28;20281;-71
2021/12/01 03:09:26;;;;;;;17.13;16.33;;;6.40;86.80;;;;;;5023427;28;20284;-72
2021/12/01 03:11:53;;;;;;;17.30;16.50;;;6.40;86.90;;;;;;5026672;28;20193;-71
2021/12/01 03:14:22;;;;;;;17.00;16.20;;;6.40;86.90;;;;;;5028160;28;20308;-71
2021/12/01 03:16:51;;;;;;;17.35;16.55;;;6.40;87.30;;;;;;5026936;28;20675;-71
2021/12/01 03:19:19;;;;;;;17.20;16.40;;;6.40;87.10;;;;;;5029050;28;20305;-71
2021/12/01 03:21:46;;;;;;;18.25;17.30;;;6.50;86.80;;;;;;5026666;28;20232;-71
2021/12/01 03:24:13;;;;;;;16.75;15.95;;;6.60;87.10;;;;;;5027073;28;20308;-72
2021/12/01 03:26:40;;;;;;;17.42;16.52;;;6.60;87.90;;;;;;5024857;28;20683;-71
2021/12/01 03:29:08;;;;;;;17.42;16.63;;;6.60;87.00;;;;;;5027257;28;20701;-71
2021/12/01 03:31:37;;;;;;;17.73;16.83;;;6.60;86.40;;;;;;5025703;28;20274;-71
2021/12/01 03:34:05;;;;;;;18.08;17.17;;;6.60;86.30;;;;;;5022492;28;20244;-73
2021/12/01 03:36:32;;;;;;;17.13;16.33;;;6.60;86.20;;;;;;5026610;28;20232;-73
2021/12/01 03:38:59;;;;;;;17.85;16.95;;;6.60;86.40;;;;;;5024298;28;20585;-73
2021/12/01 03:41:26;;;;;;;18.20;17.30;;;6.70;86.30;;;;;;5025409;28;20630;-72
2021/12/01 03:43:53;;;;;;;17.98;17.08;;;6.70;86.20;;;;;;5024909;28;20245;-72
2021/12/01 03:46:21;;;;;;;17.83;17.02;;;6.70;86.00;;;;;;5026284;28;20252;-72
2021/12/01 03:48:50;;;;;;;18.27;17.38;;;6.70;85.90;;;;;;5027024;28;20677;-72
2021/12/01 03:51:17;;;;;;;18.30;17.40;;;6.60;86.60;;;;;;5022204;28;20196;-71
2021/12/01 03:53:44;;;;;;;17.48;16.67;;;6.50;86.70;;;;;;5026544;28;20247;-71
2021/12/01 03:56:11;;;;;;;18.88;17.88;;;6.60;86.70;;;;;;5026356;28;20215;-72
2021/12/01 03:58:38;;;;;;;20.15;19.15;;;6.60;86.20;;;;;;5023684;28;20205;-72
2021/12/01 04:01:07;;;;;;;18.25;17.35;;;6.60;86.40;;;;;;5021655;28;20194;-71
2021/12/01 04:03:34;;;;;;;18.90;17.90;;;6.70;86.20;;;;;;5023701;28;20217;-71
2021/12/01 04:06:03;;;;;;;18.80;17.90;;;6.70;86.10;;;;;;5024817;28;20288;-72
2021/12/01 04:08:31;;;;;;;20.10;19.10;;;6.70;87.40;;;;;;5026638;28;20716;-72
2021/12/01 04:10:58;;;;;;;19.48;18.48;;;6.70;87.00;;;;;;5022746;28;20233;-71
2021/12/01 04:13:25;;;;;;;18.80;17.90;;;6.60;86.90;;;;;;5024526;28;20300;-72
2021/12/01 04:15:52;;;;;;;19.33;18.27;;;6.60;87.20;;;;;;5023910;28;20751;-72
2021/12/01 04:18:19;;;;;;;19.10;18.10;;;6.60;86.90;;;;;;5025151;28;20201;-71
2021/12/01 04:20:46;;;;;;;19.10;18.10;;;6.70;86.50;;;;;;5025084;28;20209;-71
2021/12/01 04:23:15;;;;;;;19.20;18.30;;;6.70;86.50;;;;;;5026338;28;20239;-71
2021/12/01 04:25:42;;;;;;;19.27;18.25;;;6.70;86.40;;;;;;5026149;28;20704;-71
2021/12/01 04:28:09;;;;;;;19.95;18.63;;;6.80;86.50;;;;;;5025423;28;20224;-71
2021/12/01 04:30:36;;;;;;;21.05;20.05;;;6.80;86.30;;;;;;5024568;28;20284;-72
2021/12/01 04:33:03;;;;;;;19.85;18.55;;;6.80;86.50;;;;;;5027428;28;20308;-71
2021/12/01 04:35:30;;;;;;;20.13;19.13;;;6.80;87.30;;;;;;5022957;28;20225;-72
2021/12/01 04:37:58;;;;;;;20.58;19.42;;;6.80;86.40;;;;;;5026989;28;20194;-72
2021/12/01 04:40:27;;;;;;;19.00;18.10;;;6.90;85.70;;;;;;5024252;28;20249;-72
2021/12/01 04:42:54;;;;;;;20.42;19.33;;;7.00;85.60;;;;;;5026832;28;20213;-73
2021/12/01 04:45:22;;;;;;;19.25;18.25;;;6.90;85.70;;;;;;5023096;28;20228;-73
2021/12/01 04:47:51;;;;;;;19.88;18.88;;;6.90;86.00;;;;;;5027637;28;20201;-73
2021/12/01 04:50:20;;;;;;;21.00;19.90;;;6.90;85.90;;;;;;5026117;28;20185;-73
2021/12/01 04:52:47;;;;;;;18.85;17.85;;;6.90;86.10;;;;;;5023932;28;20651;-73
2021/12/01 04:55:15;;;;;;;19.30;18.40;;;6.90;86.00;;;;;;5025790;28;20304;-73
2021/12/01 04:57:46;;;;;;;19.58;18.58;;;6.90;86.40;;;;;;5023982;28;20189;-72
2021/12/01 05:00:16;;;;;;;19.30;18.40;;;6.90;86.20;;;;;;5023303;28;20344;-71
2021/12/01 05:02:43;;;;;;;18.92;18.00;;;7.00;86.00;;;;;;5023257;28;20299;-71
2021/12/01 05:05:10;;;;;;;20.02;19.02;;;7.00;85.80;;;;;;5022292;28;20320;-71
2021/12/01 05:07:37;;;;;;;18.80;18.00;;;6.90;85.80;;;;;;5025011;28;20255;-71
2021/12/01 05:10:06;;;;;;;18.98;18.08;;;7.00;85.80;;;;;;5023646;28;20224;-71
2021/12/01 05:12:34;;;;;;;18.88;17.98;;;7.10;85.60;;;;;;5022732;28;20198;-71
2021/12/01 05:15:02;;;;;;;19.80;18.80;;;7.10;85.50;;;;;;5025898;28;20726;-71
2021/12/01 05:17:29;;;;;;;19.60;18.60;;;7.00;86.00;;;;;;5025369;28;20331;-71
2021/12/01 05:19:56;;;;;;;19.35;18.42;;;7.10;85.50;;;;;;5022905;28;20260;-72
2021/12/01 05:22:23;;;;;;;18.38;17.27;;;7.10;85.40;;;;;;5020354;28;20648;-71
2021/12/01 05:24:50;;;;;;;19.10;18.20;;;7.20;85.50;;;;;;5024379;28;20305;-71
2021/12/01 05:27:17;;;;;;;18.77;17.88;;;7.20;85.10;;;;;;5025954;28;20288;-72
2021/12/01 05:29:44;;;;;;;18.67;17.67;;;7.20;85.00;;;;;;5024832;28;21574;-72
2021/12/01 05:32:13;;;;;;;18.92;18.02;;;7.20;84.90;;;;;;5022070;28;20205;-71
2021/12/01 05:34:40;;;;;;;18.52;17.63;;;7.20;85.10;;;;;;5025597;28;20298;-72
2021/12/01 05:37:07;;;;;;;18.42;17.42;;;7.20;85.00;;;;;;5023278;28;20288;-72
2021/12/01 05:39:34;;;;;;;18.17;17.38;;;7.30;84.50;;;;;;5029040;28;20332;-72
2021/12/01 05:42:01;;;;;;;18.52;17.63;;;7.30;84.20;;;;;;5027022;28;20229;-71
2021/12/01 05:44:29;;;;;;;19.30;18.40;;;7.20;84.80;;;;;;5028680;28;20241;-72
2021/12/01 05:46:56;;;;;;;18.33;17.45;;;7.30;84.30;;;;;;5027450;28;20304;-72
2021/12/01 05:49:25;;;;;;;19.60;18.70;;;7.30;84.80;;;;;;5025480;28;20224;-71
2021/12/01 05:51:52;;;;;;;19.90;18.80;;;7.40;84.10;;;;;;5025863;28;20209;-72
2021/12/01 05:54:19;;;;;;;18.45;17.55;;;7.40;83.80;;;;;;5026678;28;20656;-71
2021/12/01 05:56:46;;;;;;;20.05;19.15;;;7.40;83.80;;;;;;5027808;28;20284;-72
2021/12/01 05:59:13;;;;;;;19.80;18.80;;;7.30;84.00;;;;;;5029402;28;20237;-72
2021/12/01 06:01:41;;;;;;;19.95;18.95;;;7.50;83.80;;;;;;5027890;28;20288;-73
2021/12/01 06:04:08;;;;;;;19.20;18.30;;;7.50;83.60;;;;;;5030231;28;20244;-73
2021/12/01 06:06:37;;;;;;;18.90;17.95;;;7.50;83.70;;;;;;5027934;28;20300;-72
2021/12/01 06:09:06;;;;;;;19.65;18.75;;;7.50;83.80;;;;;;5029840;28;20726;-73
2021/12/01 06:11:33;;;;;;;19.13;18.23;;;7.40;83.90;;;;;;5027061;28;20635;-72
2021/12/01 06:14:01;;;;;;;18.63;17.80;;;7.50;84.10;;;;;;5026908;28;20819;-73
2021/12/01 06:16:28;;;;;;;19.60;18.60;;;7.50;83.50;;;;;;5024865;28;20573;-71
2021/12/01 06:18:55;;;;;;;21.08;20.00;;;7.50;83.70;;;;;;5028285;28;20766;-72
2021/12/01 06:21:22;;;;;;;21.55;20.13;;;7.60;83.20;;;;;;5028078;28;20217;-72
2021/12/01 06:23:50;;;;;;;19.40;18.40;;;7.60;83.30;;;;;;5027504;28;20271;-71
2021/12/01 06:26:17;;;;;;;21.70;20.42;;;7.50;83.80;;;;;;5027072;28;20291;-71
2021/12/01 06:28:44;;;;;;;19.60;18.60;;;7.50;84.10;;;;;;5027602;28;20292;-71
2021/12/01 06:31:11;;;;;;;18.85;18.02;;;7.60;83.80;;;;;;5028900;28;20193;-69
2021/12/01 06:33:38;;;;;;;20.73;19.63;;;7.50;85.00;;;;;;5029646;28;20251;-72
2021/12/01 06:36:06;;;;;;;19.85;18.80;;;7.60;84.40;;;;;;5024926;28;20229;-70
2021/12/01 06:38:33;;;;;;;19.52;18.55;;;7.60;83.40;;;;;;5026319;28;20292;-74
2021/12/01 06:41:02;;;;;;;20.48;19.33;;;7.60;83.10;;;;;;5024786;28;20679;-71
2021/12/01 06:43:29;;;;;;;19.50;18.50;;;7.70;83.90;;;;;;5023737;28;20217;-72
2021/12/01 06:45:56;;;;;;;19.42;18.33;;;7.80;83.10;;;;;;5021000;28;20225;-72
2021/12/01 06:48:24;;;;;;;18.77;17.85;;;7.90;82.50;;;;;;5021938;28;20251;-74
2021/12/01 06:50:51;;;;;;;19.00;18.00;;;7.80;82.50;;;;;;5025446;28;20247;-73
2021/12/01 06:53:18;;;;;;;19.85;18.70;;;7.80;82.70;;;;;;5026510;28;20564;-74
2021/12/01 06:55:45;;;;;;;19.92;18.92;;;7.80;83.00;;;;;;5024295;28;20209;-72
2021/12/01 06:58:14;;;;;;;20.35;19.35;;;7.80;83.20;;;;;;5027582;28;20247;-72
2021/12/01 07:00:41;;;;;;;21.27;20.17;;;7.80;82.80;;;;;;5028280;28;20325;-72
2021/12/01 07:03:08;;;;;;;20.00;19.00;;;7.90;82.30;;;;;;5027711;28;20245;-73
2021/12/01 07:05:35;;;;;;;19.40;18.50;;;7.90;82.10;;;;;;5028334;28;20291;-73
2021/12/01 07:08:02;;;;;;;19.98;18.98;;;8.00;81.60;;;;;;5027879;28;20197;-74
2021/12/01 07:10:29;;;;;;;20.65;19.35;;;8.00;81.50;;;;;;5026489;28;20672;-76
2021/12/01 07:12:56;;;;;;;20.10;19.10;;;8.00;81.50;;;;;;5026791;28;20213;-75
2021/12/01 07:15:25;;;;;;;22.27;21.02;;;8.00;81.60;;;;;;5025335;28;20276;-71
2021/12/01 07:17:52;;;;;;;20.75;19.65;;;8.00;80.70;;;;;;5024974;28;20201;-72
2021/12/01 07:20:19;;;;;;;20.30;19.30;;;8.10;80.80;;;;;;5027253;28;20738;-72
2021/12/01 07:22:46;;;;;;;19.08;18.17;;;8.10;80.70;;;;;;5029433;28;20326;-72
2021/12/01 07:25:13;;;;;;;21.00;20.00;;;8.10;80.70;;;;;;5026360;28;20285;-72
2021/12/01 07:27:40;;;;;;;21.95;20.65;;;8.10;80.60;;;;;;5025703;28;20886;-72
2021/12/01 07:30:08;;;;;;;20.40;19.20;;;8.10;79.90;;;;;;5023909;28;20205;-71
2021/12/01 07:32:36;;;;;;;20.88;19.75;;;8.30;79.90;;;;;;5029253;28;20292;-71
2021/12/01 07:35:04;;;;;;;21.60;20.50;;;8.30;79.60;;;;;;5028054;28;20201;-71
2021/12/01 07:37:31;;;;;;;19.83;18.85;;;8.30;79.50;;;;;;5025307;28;20280;-72
2021/12/01 07:39:58;;;;;;;19.83;18.83;;;8.30;79.50;;;;;;5027042;28;20228;-74
2021/12/01 07:42:25;;;;;;;20.85;19.75;;;8.40;80.30;;;;;;5025876;28;20202;-72
2021/12/01 07:44:52;;;;;;;20.58;19.58;;;8.40;80.80;;;;;;5023092;28;20225;-72
2021/12/01 07:47:19;;;;;;;20.90;19.90;;;8.50;79.40;;;;;;5028276;28;20202;-71
2021/12/01 07:49:48;;;;;;;22.67;21.58;;;8.50;78.90;;;;;;5026570;28;20632;-71
2021/12/01 07:52:15;;;;;;;22.05;21.00;;;8.50;79.20;;;;;;5023717;28;20646;-72
2021/12/01 07:54:42;;;;;;;20.70;19.70;;;8.50;79.00;;;;;;5027252;28;20237;-72
2021/12/01 07:57:10;;;;;;;21.98;20.75;;;8.50;78.90;;;;;;5025466;28;20220;-72
2021/12/01 07:59:37;;;;;;;21.55;20.55;;;8.50;79.30;;;;;;5028166;28;20721;-72
2021/12/01 08:02:04;;;;;;;22.52;21.52;;;8.70;78.80;;;;;;5022786;28;20305;-72
2021/12/01 08:04:34;;;;;;;21.20;20.20;;;8.70;78.10;;;;;;5027104;28;20275;-72
2021/12/01 08:07:03;;;;;;;22.02;20.92;;;8.70;78.60;;;;;;5021926;28;20288;-72
2021/12/01 08:09:30;;;;;;;19.98;19.08;;;8.70;78.60;;;;;;5028051;28;20193;-72
2021/12/01 08:11:57;;;;;;;21.58;20.48;;;8.80;78.40;;;;;;5027695;28;20742;-70
2021/12/01 08:14:24;;;;;;;21.80;20.70;;;8.80;78.30;;;;;;5027435;28;20292;-72
2021/12/01 08:16:52;;;;;;;22.30;21.30;;;8.80;78.10;;;;;;5026689;28;20229;-72
2021/12/01 08:19:19;;;;;;;21.00;20.00;;;8.90;78.30;;;;;;5027568;28;20607;-72
2021/12/01 08:21:49;;;;;;;21.25;20.25;;;9.00;78.00;;;;;;5025881;28;20213;-72
2021/12/01 08:24:18;;;;;;;21.38;20.38;;;9.00;77.80;;;;;;5023681;28;20721;-70
2021/12/01 08:26:46;;;;;;;22.30;21.20;;;9.10;77.70;;;;;;5023961;28;20221;-71
2021/12/01 08:29:13;;;;;;;21.30;20.20;;;9.10;77.40;;;;;;5029303;28;20305;-70
2021/12/01 08:31:41;;;;;;;23.00;21.80;;;9.00;78.00;;;;;;5022695;28;20280;-72
2021/12/01 08:34:08;;;;;;;21.88;20.88;;;9.10;77.90;;;;;;5025653;28;20300;-72
2021/12/01 08:36:35;;;;;;;22.30;21.20;;;9.10;78.40;;;;;;5026718;28;20195;-73
2021/12/01 08:39:04;;;;;;;21.25;20.25;;;9.30;77.60;;;;;;5026398;28;20718;-72
2021/12/01 08:41:33;;;;;;;21.73;20.63;;;9.40;77.00;;;;;;5024372;28;20304;-72
2021/12/01 08:44:02;;;;;;;23.63;22.43;;;9.50;76.90;;;;;;5022395;28;20476;-72
2021/12/01 08:46:29;;;;;;;22.07;20.97;;;9.50;76.80;;;;;;5026600;28;20456;-72
2021/12/01 08:48:58;;;;;;;22.37;21.17;;;9.50;76.70;;;;;;5025333;28;20525;-72
2021/12/01 08:51:25;;;;;;;22.33;21.33;;;9.70;76.40;;;;;;5022458;28;20835;-73
2021/12/01 08:53:52;;;;;;;23.40;22.30;;;9.60;76.30;;;;;;5027688;28;20603;-72
2021/12/01 08:56:19;;;;;;;21.77;20.67;;;9.80;76.20;;;;;;5023212;28;20796;-74
2021/12/01 08:58:48;;;;;;;22.43;21.37;;;9.80;76.40;;;;;;5025858;28;20550;-72
2021/12/01 09:01:15;;;;;;;20.80;19.77;;;9.90;76.20;;;;;;5025569;28;22450;-71
2021/12/01 09:03:42;;;;;;;21.60;20.50;;;10.00;75.80;;;;;;5024710;28;20499;-73
2021/12/01 09:06:09;;;;;;;24.63;23.43;;;10.10;75.10;;;;;;5024778;28;20990;-74
2021/12/01 09:08:36;;;;;;;22.00;20.90;;;10.20;74.90;;;;;;5021706;28;20479;-72
2021/12/01 09:11:04;;;;;;;23.23;22.17;;;10.30;74.60;;;;;;5027259;28;20483;-72
2021/12/01 09:13:33;;;;;;;21.03;20.03;;;10.40;74.30;;;;;;5029996;28;20475;-72
2021/12/01 09:16:03;;;;;;;23.43;22.33;;;10.50;74.10;;;;;;5027703;28;20584;-72
2021/12/01 09:18:30;;;;;;;23.00;21.80;;;10.60;73.60;;;;;;5025852;28;20826;-72
2021/12/01 09:20:57;;;;;;;22.47;21.47;;;10.70;73.60;;;;;;5031197;28;20501;-72
2021/12/01 09:23:25;;;;;;;21.27;20.27;;;10.80;73.30;;;;;;5028981;28;20499;-72
2021/12/01 09:25:52;;;;;;;23.87;22.57;;;10.90;73.00;;;;;;5026520;28;20535;-72
2021/12/01 09:28:23;;;;;;;22.70;21.60;;;10.90;73.20;;;;;;5030680;28;20456;-72
2021/12/01 09:30:50;;;;;;;23.50;22.30;;;10.90;72.90;;;;;;5027077;28;20467;-72
2021/12/01 09:33:19;;;;;;;23.93;22.80;;;10.90;72.70;;;;;;5028154;28;20862;-72
2021/12/01 09:35:46;;;;;;;23.30;22.10;;;10.90;72.80;;;;;;5022504;28;20474;-73
2021/12/01 09:38:15;;;;;;;24.33;23.13;;;10.90;72.60;;;;;;5028903;28;20535;-73
2021/12/01 09:40:46;;;;;;;23.63;22.03;;;10.90;72.80;;;;;;5027646;28;20467;-72
2021/12/01 09:43:13;;;;;;;23.50;22.40;;;10.80;73.30;;;;;;5031365;28;20981;-72
2021/12/01 09:45:42;;;;;;;22.50;21.40;;;10.70;73.10;;;;;;5024310;28;20466;-73
2021/12/01 09:48:09;;;;;;;23.77;22.63;;;10.80;73.50;;;;;;5029257;28;20511;-72
2021/12/01 09:50:38;;;;;;;23.33;22.23;;;10.70;73.40;;;;;;5026265;28;20550;-72
2021/12/01 09:53:05;;;;;;;23.43;22.43;;;10.80;73.50;;;;;;5029797;28;20467;-72
2021/12/01 09:55:32;;;;;;;21.70;20.60;;;10.80;73.50;;;;;;5029447;28;20555;-72
2021/12/01 09:58:03;;;;;;;21.00;20.00;;;10.60;73.50;;;;;;5029650;28;20537;-72
2021/12/01 10:00:31;;;;;;;23.40;22.30;;;10.60;74.20;;;;;;5024761;28;20470;-72
2021/12/01 10:02:58;;;;;;;21.63;20.63;;;10.60;74.10;;;;;;5031377;28;20511;-72
2021/12/01 10:05:53;;;;;;;22.87;21.87;;;10.70;74.50;;;;;;5022055;28;20501;-72
2021/12/01 10:08:23;;;;;;;22.10;21.10;;;10.70;74.40;;;;;;5030805;28;20463;-72
2021/12/01 10:10:51;;;;;;;23.13;22.03;;;10.90;74.10;;;;;;5029304;28;20543;-74
2021/12/01 10:13:28;;;;;;;23.33;22.13;;;10.90;73.50;;;;;;5030594;28;20562;-73
2021/12/01 10:16:01;;;;;;;24.30;23.20;;;10.90;73.80;;;;;;5029263;28;21015;-74
2021/12/01 10:18:35;;;;;;;22.90;21.90;;;11.00;73.60;;;;;;5026978;28;20551;-74
2021/12/01 10:21:06;;;;;;;22.60;21.40;;;11.10;73.20;;;;;;5028179;28;20474;-73
2021/12/01 10:23:35;;;;;;;23.50;22.30;;;11.00;73.20;;;;;;5026034;28;20482;-74
2021/12/01 10:26:11;;;;;;;23.13;21.93;;;11.10;73.20;;;;;;5025996;28;20479;-73
2021/12/01 10:28:40;;;;;;;22.60;21.50;;;11.10;73.30;;;;;;5028952;28;20507;-74
2021/12/01 10:31:07;;;;;;;22.40;21.30;;;11.20;72.50;;;;;;5029454;28;20536;-75
2021/12/01 10:33:35;;;;;;;22.40;21.40;;;11.20;72.50;;;;;;5029895;28;20515;-74
2021/12/01 10:36:06;;;;;;;23.13;21.93;;;11.30;72.90;;;;;;5029938;28;20459;-73
2021/12/01 10:38:36;;;;;;;22.10;21.10;;;11.30;73.00;;;;;;5030339;28;20459;-72
2021/12/01 10:41:09;;;;;;;22.27;21.10;;;11.50;72.30;;;;;;5028567;28;20677;-72
2021/12/01 10:43:46;;;;;;;22.60;21.60;;;11.60;72.20;;;;;;5024188;28;20554;-72
2021/12/01 10:46:16;;;;;;;22.47;21.37;;;11.70;71.80;;;;;;5021200;28;20838;-72
2021/12/01 10:48:44;;;;;;;22.37;21.37;;;11.70;71.60;;;;;;5027930;28;20807;-72
2021/12/01 10:51:31;;;;;;;22.43;21.33;;;11.70;71.60;;;;;;5029265;28;20548;-72
2021/12/01 10:53:59;;;;;;;23.77;22.67;;;11.70;71.50;;;;;;5030258;28;20582;-72
2021/12/01 10:56:26;;;;;;;22.63;21.53;;;11.70;71.70;;;;;;5026343;28;20544;-72
2021/12/01 10:58:53;;;;;;;24.00;22.80;;;11.70;71.80;;;;;;5027052;28;20990;-72
2021/12/01 11:01:22;;;;;;;23.30;22.20;;;11.70;71.90;;;;;;5029031;28;21024;-73
2021/12/01 11:03:50;;;;;;;23.20;22.00;;;11.70;72.10;;;;;;5027063;28;20480;-72
2021/12/01 11:06:21;;;;;;;24.30;23.10;;;11.70;72.00;;;;;;5028038;28;20463;-72
2021/12/01 11:08:55;;;;;;;22.83;21.73;;;11.90;71.10;;;;;;5029655;28;20452;-72
2021/12/01 11:11:23;;;;;;;22.30;21.20;;;11.90;71.50;;;;;;5023702;28;20467;-70
2021/12/01 11:13:50;;;;;;;23.80;22.60;;;12.00;71.70;;;;;;5022413;28;20555;-70
2021/12/01 11:16:18;;;;;;;23.53;22.33;;;12.00;71.90;;;;;;5028340;28;20551;-70
2021/12/01 11:18:47;;;;;;;22.50;21.40;;;12.00;72.40;;;;;;5029713;28;20460;-70
2021/12/01 11:21:17;;;;;;;23.13;21.97;;;12.10;72.70;;;;;;5025767;28;20470;-70
2021/12/01 11:23:47;;;;;;;22.90;21.80;;;12.00;73.30;;;;;;5028135;28;20499;-70
2021/12/01 11:26:17;;;;;;;24.10;22.77;;;12.00;73.70;;;;;;5023216;28;20520;-70
2021/12/01 11:28:47;;;;;;;21.50;20.50;;;12.00;74.30;;;;;;5028192;28;20460;-70
2021/12/01 11:31:16;;;;;;;23.10;22.10;;;11.90;74.30;;;;;;5021963;28;20535;-70
2021/12/01 11:33:44;;;;;;;22.30;21.20;;;11.90;74.40;;;;;;5028625;28;20480;-70
2021/12/01 11:36:15;;;;;;;22.40;21.30;;;11.90;74.30;;;;;;5024113;28;20893;-72
2021/12/01 11:38:43;;;;;;;22.00;20.80;;;12.00;73.70;;;;;;5024331;28;20460;-70
2021/12/01 11:41:14;;;;;;;21.73;20.63;;;12.00;74.30;;;;;;5027258;28;20455;-70
2021/12/01 11:43:41;;;;;;;22.27;21.17;;;12.00;74.10;;;;;;5025798;28;20590;-70
2021/12/01 11:46:09;;;;;;;21.63;20.63;;;12.20;74.40;;;;;;5026788;28;21035;-74
2021/12/01 11:48:39;;;;;;;22.73;21.63;;;12.30;73.80;;;;;;5023830;28;20506;-71
2021/12/01 11:51:16;;;;;;;22.40;21.40;;;12.40;73.50;;;;;;5024213;28;20480;-71
2021/12/01 11:53:46;;;;;;;22.73;21.63;;;12.60;73.30;;;;;;5024049;28;20500;-72
2021/12/01 11:56:18;;;;;;;20.80;19.80;;;12.60;73.20;;;;;;5027565;28;20459;-73
2021/12/01 11:58:57;;;;;;;21.00;20.00;;;12.60;73.10;;;;;;5025281;28;21041;-71
2021/12/01 12:01:45;;;;;;;21.13;20.13;;;12.70;73.00;;;;;;5027649;28;20455;-73
2021/12/01 12:04:21;;;;;;;21.83;20.83;;;12.80;72.80;;;;;;5020775;28;20898;-72
2021/12/01 12:06:52;;;;;;;22.70;21.60;;;12.80;72.30;;;;;;5027945;28;20479;-74
2021/12/01 12:09:22;;;;;;;22.23;21.13;;;12.80;72.30;;;;;;5024700;28;20507;-72
2021/12/01 12:11:52;;;;;;;22.37;21.27;;;12.70;73.00;;;;;;5026579;28;20460;-72
2021/12/01 12:14:22;;;;;;;21.93;20.93;;;12.70;73.40;;;;;;5028106;28;20468;-72
2021/12/01 12:17:07;;;;;;;22.30;21.20;;;12.80;73.00;;;;;;5027243;28;20448;-72
2021/12/01 12:19:53;;;;;;;22.27;21.07;;;12.80;73.00;;;;;;5028032;28;20486;-71
2021/12/01 12:22:28;;;;;;;22.50;21.40;;;12.80;73.00;;;;;;5023155;28;20825;-71
2021/12/01 12:24:56;;;;;;;22.80;21.60;;;12.80;73.20;;;;;;5025240;28;20462;-72
2021/12/01 12:27:44;;;;;;;22.97;21.87;;;12.70;73.50;;;;;;5026662;28;20468;-71
2021/12/01 12:30:15;;;;;;;23.03;21.93;;;12.60;73.70;;;;;;5022166;28;20560;-73
2021/12/01 12:32:44;;;;;;;22.37;21.27;;;12.50;73.50;;;;;;5026085;28;20884;-73
2021/12/01 12:35:13;;;;;;;21.97;20.77;;;12.50;74.10;;;;;;5026082;28;20480;-76
2021/12/01 12:37:41;;;;;;;21.90;20.80;;;12.40;73.90;;;;;;5027381;28;20456;-72
2021/12/01 12:40:13;;;;;;;22.33;21.07;;;12.50;73.70;;;;;;5026853;28;20484;-71
2021/12/01 12:43:13;;;;;;;22.80;21.60;;;12.40;74.40;;;;;;5028082;28;20578;-73
2021/12/01 12:45:45;;;;;;;22.33;21.23;;;12.50;73.90;;;;;;5025137;28;20567;-73